Crane, Washington
Current Conditions -  °F | °C
As of 8:53 AM on Saturday 20 Dec 2014 (Local Time) from KCLM Reporting Station
Few Clouds Few Clouds  
Wind Chill:   Ceiling: Unl
Heat Index:   Visibility: 10mi
Dew Point:   Wind: 3mph
Humidity: 93%   Direction: 230°SW
Pressure: 29.51"   Gusts: NA
Location:  48.1359°N, 123.734°W
Report Text: KCLM 201653Z AUTO 23003KT 10SM FEW075 04/03 A2951 RMK AO2 SLP993 T00440033 TSNO $
Loading
Personal Weather Stations






























Interactive Weather Map New forecast layout! Learn more

10-Day Weather Forecast

Advertisements
Track Severe Weather on mobile